createdAt,value
2019-05-23T00:01:42.737Z,12.71
2019-05-23T00:04:20.157Z,12.69
2019-05-23T00:06:47.395Z,12.59
2019-05-23T00:09:14.192Z,12.55
2019-05-23T00:11:44.372Z,12.41
2019-05-23T00:14:30.188Z,12.43
2019-05-23T00:16:57.227Z,12.46
2019-05-23T00:19:25.624Z,12.42
2019-05-23T00:21:52.303Z,12.36
2019-05-23T00:24:19.249Z,12.41
2019-05-23T00:26:46.460Z,12.46
2019-05-23T00:29:13.683Z,12.40
2019-05-23T00:31:46.378Z,12.13
2019-05-23T00:34:13.992Z,12.02
2019-05-23T00:36:42.017Z,11.95
2019-05-23T00:39:10.802Z,11.79
2019-05-23T00:41:40.056Z,11.81
2019-05-23T00:44:07.492Z,11.96
2019-05-23T00:46:34.197Z,12.01
2019-05-23T00:49:02.443Z,11.98
2019-05-23T00:51:29.822Z,11.97
2019-05-23T00:53:56.595Z,11.97
2019-05-23T00:56:24.121Z,11.97
2019-05-23T00:58:51.026Z,11.93
2019-05-23T01:01:19.302Z,11.97
2019-05-23T01:03:46.754Z,12.05
2019-05-23T01:06:14.444Z,11.98
2019-05-23T01:08:41.855Z,12.07
2019-05-23T01:13:37.377Z,11.78
2019-05-23T01:16:08.230Z,11.78
2019-05-23T01:18:35.458Z,11.68
2019-05-23T01:21:25.626Z,11.49
2019-05-23T01:24:01.429Z,11.38
2019-05-23T01:26:29.137Z,11.48
2019-05-23T01:28:56.827Z,11.53
2019-05-23T01:31:30.251Z,11.57
2019-05-23T01:33:57.961Z,11.50
2019-05-23T01:36:25.066Z,11.57
2019-05-23T01:38:52.252Z,11.62
2019-05-23T01:41:20.200Z,11.51
2019-05-23T01:43:47.782Z,11.52
2019-05-23T01:46:14.500Z,11.40
2019-05-23T01:48:41.533Z,11.40
2019-05-23T01:51:08.989Z,11.44
2019-05-23T01:53:36.005Z,11.48
2019-05-23T01:56:03.719Z,11.42
2019-05-23T01:58:30.474Z,11.38
2019-05-23T02:00:57.173Z,11.32
2019-05-23T02:03:23.896Z,11.37
2019-05-23T02:05:50.750Z,11.26
2019-05-23T02:08:17.692Z,11.33
2019-05-23T02:10:44.997Z,11.20
2019-05-23T02:13:11.938Z,11.17
2019-05-23T02:15:40.904Z,11.16
2019-05-23T02:18:08.428Z,11.01
2019-05-23T02:20:36.449Z,10.98
2019-05-23T02:25:42.324Z,10.98
2019-05-23T02:28:09.439Z,11.02
2019-05-23T02:30:37.049Z,11.03
2019-05-23T02:33:07.764Z,10.96
2019-05-23T02:35:35.888Z,11.01
2019-05-23T02:38:22.385Z,11.08
2019-05-23T02:40:55.793Z,11.07
2019-05-23T02:43:25.033Z,11.08
2019-05-23T02:45:54.173Z,10.97
2019-05-23T02:48:22.595Z,10.94
2019-05-23T02:50:53.195Z,11.01
2019-05-23T02:53:21.596Z,11.02
2019-05-23T02:55:50.465Z,10.98
2019-05-23T02:58:27.893Z,10.90
2019-05-23T03:01:43.247Z,10.79
2019-05-23T03:04:12.043Z,10.78
2019-05-23T03:06:38.895Z,10.74
2019-05-23T03:09:06.670Z,10.60
2019-05-23T03:11:38.815Z,10.54
2019-05-23T03:14:05.504Z,10.53
2019-05-23T03:16:33.342Z,10.75
2019-05-23T03:19:02.537Z,10.77
2019-05-23T03:21:30.049Z,10.89
2019-05-23T03:23:57.109Z,10.86
2019-05-23T03:26:54.770Z,10.74
2019-05-23T03:29:22.083Z,10.75
2019-05-23T03:31:54.617Z,10.63
2019-05-23T03:34:23.692Z,10.51
2019-05-23T03:36:52.747Z,10.47
2019-05-23T03:39:19.627Z,10.47
2019-05-23T03:41:47.538Z,10.41
2019-05-23T03:44:14.509Z,10.43
2019-05-23T03:46:44.183Z,10.30
2019-05-23T03:49:11.305Z,10.41
2019-05-23T03:51:39.999Z,10.42
2019-05-23T03:54:07.900Z,10.51
2019-05-23T03:56:35.145Z,10.49
2019-05-23T03:59:03.761Z,10.39
2019-05-23T04:01:46.277Z,10.38
2019-05-23T04:04:02.491Z,10.41
2019-05-23T04:06:29.439Z,10.31
2019-05-23T04:08:56.816Z,10.25
2019-05-23T04:11:23.587Z,10.39
2019-05-23T04:13:50.690Z,10.34
2019-05-23T04:16:17.443Z,10.34
2019-05-23T04:18:44.889Z,10.48
2019-05-23T04:21:11.976Z,10.47
2019-05-23T04:23:39.297Z,10.41
2019-05-23T04:26:06.288Z,10.43
2019-05-23T04:28:33.128Z,10.42
2019-05-23T04:31:00.338Z,10.36
2019-05-23T04:33:27.070Z,10.32
2019-05-23T04:35:53.889Z,10.32
2019-05-23T04:38:20.623Z,10.39
2019-05-23T04:40:47.474Z,10.33
2019-05-23T04:43:14.901Z,10.29
2019-05-23T04:45:41.615Z,10.30
2019-05-23T04:48:08.324Z,10.32
2019-05-23T04:50:37.168Z,10.45
2019-05-23T04:53:06.018Z,10.50
2019-05-23T04:55:33.153Z,10.57
2019-05-23T04:58:04.246Z,10.56
2019-05-23T05:00:29.059Z,10.41
2019-05-23T05:02:55.829Z,10.49
2019-05-23T05:05:22.538Z,10.59
2019-05-23T05:07:49.320Z,10.60
2019-05-23T05:10:20.727Z,10.64
2019-05-23T05:12:47.507Z,10.70
2019-05-23T05:15:14.735Z,10.69
2019-05-23T05:17:41.484Z,10.79
2019-05-23T05:20:08.243Z,10.76
2019-05-23T05:22:37.535Z,10.87
2019-05-23T05:25:04.824Z,11.00
2019-05-23T05:27:33.719Z,11.09
2019-05-23T05:30:01.475Z,11.33
2019-05-23T05:32:44.350Z,11.32
2019-05-23T05:34:58.863Z,11.31
2019-05-23T05:37:26.268Z,11.38
2019-05-23T05:39:55.657Z,11.42
2019-05-23T05:42:22.709Z,11.50
2019-05-23T05:44:50.029Z,11.47
2019-05-23T05:47:16.830Z,11.46
2019-05-23T05:49:43.689Z,11.59
2019-05-23T05:52:10.635Z,11.53
2019-05-23T05:54:37.384Z,11.72
2019-05-23T05:57:04.403Z,11.85
2019-05-23T05:59:31.117Z,11.93
2019-05-23T06:01:58.823Z,12.02
2019-05-23T06:04:25.531Z,12.04
2019-05-23T06:07:02.738Z,12.12
2019-05-23T06:09:30.920Z,12.17
2019-05-23T06:11:57.678Z,12.34
2019-05-23T06:14:24.545Z,12.42
2019-05-23T06:16:53.048Z,12.62
2019-05-23T06:19:20.585Z,12.86
2019-05-23T06:21:48.228Z,12.82
2019-05-23T06:24:15.621Z,12.78
2019-05-23T06:26:42.652Z,12.84
2019-05-23T06:29:12.410Z,12.91
2019-05-23T06:31:39.715Z,13.00
2019-05-23T06:34:06.474Z,13.20
2019-05-23T06:36:33.425Z,13.38
2019-05-23T06:39:00.286Z,13.51
2019-05-23T06:41:27.511Z,13.59
2019-05-23T06:43:55.064Z,13.73
2019-05-23T06:46:21.959Z,13.90
2019-05-23T06:48:49.126Z,14.05
2019-05-23T06:51:16.181Z,14.14
2019-05-23T06:53:43.011Z,14.22
2019-05-23T06:56:11.229Z,14.36
2019-05-23T06:58:37.923Z,14.45
2019-05-23T07:01:04.723Z,14.50
2019-05-23T07:03:42.756Z,14.59
2019-05-23T07:06:01.732Z,14.73
2019-05-23T07:08:29.232Z,14.77
2019-05-23T07:10:58.267Z,14.97
2019-05-23T07:13:27.362Z,15.04
2019-05-23T07:15:54.520Z,15.10
2019-05-23T07:18:21.243Z,15.32
2019-05-23T07:20:49.942Z,15.45
2019-05-23T07:23:17.446Z,15.64
2019-05-23T07:25:44.165Z,15.77
2019-05-23T07:28:10.899Z,15.94
2019-05-23T07:30:37.787Z,16.04
2019-05-23T07:33:04.491Z,16.10
2019-05-23T07:35:32.429Z,16.12
2019-05-23T07:37:59.375Z,16.04
2019-05-23T07:40:26.590Z,16.08
2019-05-23T07:42:54.009Z,16.07
2019-05-23T07:45:25.568Z,16.19
2019-05-23T07:47:52.638Z,16.27
2019-05-23T07:50:21.358Z,16.49
2019-05-23T07:52:48.194Z,16.68
2019-05-23T07:55:22.896Z,16.90
2019-05-23T07:57:49.698Z,16.97
2019-05-23T08:00:21.199Z,17.09
2019-05-23T08:02:48.521Z,16.92
2019-05-23T08:05:15.194Z,17.16
2019-05-23T08:07:42.158Z,17.16
2019-05-23T08:10:09.138Z,17.21
2019-05-23T08:12:38.577Z,17.52
2019-05-23T08:15:05.282Z,17.65
2019-05-23T08:17:32.657Z,17.84
2019-05-23T08:19:59.368Z,17.95
2019-05-23T08:22:26.178Z,18.04
2019-05-23T08:24:53.442Z,18.28
2019-05-23T08:27:22.490Z,18.44
2019-05-23T08:29:49.311Z,18.56
2019-05-23T08:32:19.130Z,18.43
2019-05-23T08:34:45.876Z,18.34
2019-05-23T08:37:14.201Z,18.27
2019-05-23T08:39:41.794Z,18.33
2019-05-23T08:42:10.711Z,18.59
2019-05-23T08:44:37.442Z,18.50
2019-05-23T08:47:07.479Z,18.60
2019-05-23T08:49:34.572Z,18.81
2019-05-23T08:52:03.814Z,18.79
2019-05-23T08:54:30.770Z,18.74
2019-05-23T08:56:57.498Z,18.89
2019-05-23T08:59:24.931Z,19.06
2019-05-23T09:01:51.649Z,18.88
2019-05-23T09:04:21.450Z,19.11
2019-05-23T09:06:50.094Z,19.33
2019-05-23T09:09:29.269Z,19.46
2019-05-23T09:11:47.736Z,19.56
2019-05-23T09:14:17.409Z,19.63
2019-05-23T09:16:46.262Z,19.41
2019-05-23T09:19:13.020Z,19.66
2019-05-23T09:21:40.137Z,19.90
2019-05-23T09:24:07.060Z,20.13
2019-05-23T09:26:34.434Z,20.16
2019-05-23T09:29:01.220Z,19.97
2019-05-23T09:31:28.557Z,19.95
2019-05-23T09:33:55.388Z,19.91
2019-05-23T09:36:22.126Z,19.83
2019-05-23T09:38:49.292Z,19.85
2019-05-23T09:41:16.075Z,19.75
2019-05-23T09:43:42.812Z,19.70
2019-05-23T09:46:09.721Z,19.55
2019-05-23T09:48:36.799Z,19.59
2019-05-23T09:51:03.536Z,19.75
2019-05-23T09:53:30.968Z,19.81
2019-05-23T09:55:57.714Z,19.84
2019-05-23T09:58:24.803Z,19.89
2019-05-23T10:00:51.560Z,19.77
2019-05-23T10:03:18.787Z,19.96
2019-05-23T10:05:45.608Z,20.16
2019-05-23T10:08:12.870Z,20.34
2019-05-23T10:10:39.944Z,20.36
2019-05-23T10:13:06.656Z,20.25
2019-05-23T10:15:53.466Z,20.28
2019-05-23T10:18:20.969Z,20.34
2019-05-23T10:20:47.802Z,20.43
2019-05-23T10:23:14.795Z,20.37
2019-05-23T10:25:41.576Z,20.35
2019-05-23T10:28:12.772Z,20.43
2019-05-23T10:30:44.786Z,20.35
2019-05-23T10:33:13.688Z,20.51
2019-05-23T10:35:56.934Z,20.62
2019-05-23T10:38:09.751Z,20.68
2019-05-23T10:40:37.300Z,20.76
2019-05-23T10:43:04.169Z,20.61
2019-05-23T10:45:31.020Z,20.65
2019-05-23T10:47:57.899Z,20.65
2019-05-23T10:50:24.962Z,20.82
2019-05-23T10:52:53.737Z,20.96
2019-05-23T10:55:20.488Z,21.03
2019-05-23T10:57:47.945Z,20.93
2019-05-23T11:00:16.683Z,20.93
2019-05-23T11:02:43.780Z,21.23
2019-05-23T11:05:13.472Z,21.29
2019-05-23T11:07:40.764Z,21.32
2019-05-23T11:10:07.483Z,21.45
2019-05-23T11:12:34.716Z,21.64
2019-05-23T11:15:01.477Z,21.98
2019-05-23T11:17:28.693Z,22.24
2019-05-23T11:19:55.483Z,22.50
2019-05-23T11:22:22.240Z,22.54
2019-05-23T11:24:49.362Z,22.82
2019-05-23T11:27:18.892Z,23.10
2019-05-23T11:29:45.618Z,23.30
2019-05-23T11:32:12.854Z,23.50
2019-05-23T11:34:39.716Z,23.06
2019-05-23T11:37:06.979Z,22.94
2019-05-23T11:39:42.253Z,22.29
2019-05-23T11:42:05.458Z,22.55
2019-05-23T11:44:34.722Z,22.66
2019-05-23T11:47:02.270Z,22.49
2019-05-23T11:49:30.037Z,22.63
2019-05-23T11:51:56.931Z,23.11
2019-05-23T11:54:24.737Z,23.50
2019-05-23T11:56:52.665Z,23.89
2019-05-23T11:59:19.436Z,24.03
2019-05-23T12:02:08.571Z,23.81
2019-05-23T12:04:40.427Z,24.15
2019-05-23T12:07:29.494Z,24.33
2019-05-23T12:09:56.226Z,24.58
2019-05-23T12:12:23.064Z,24.50
2019-05-23T12:14:50.377Z,24.66
2019-05-23T12:17:18.815Z,24.05
2019-05-23T12:19:46.063Z,23.17
2019-05-23T12:22:13.809Z,22.55
2019-05-23T12:24:41.235Z,22.10
2019-05-23T12:27:08.237Z,22.19
2019-05-23T12:29:35.171Z,22.33
2019-05-23T12:32:03.765Z,22.85
2019-05-23T12:34:30.854Z,23.18
2019-05-23T12:37:16.802Z,23.73
2019-05-23T12:39:26.304Z,24.18
2019-05-23T12:41:53.689Z,24.45
2019-05-23T12:44:20.552Z,24.87
2019-05-23T12:46:47.303Z,25.23
2019-05-23T12:49:28.943Z,25.12
2019-05-23T12:51:56.306Z,24.61
2019-05-23T12:54:24.129Z,24.01
2019-05-23T12:56:51.205Z,24.12
2019-05-23T12:59:18.774Z,24.55
2019-05-23T13:01:47.886Z,24.93
2019-05-23T13:04:15.152Z,25.43
2019-05-23T13:06:42.612Z,25.93
2019-05-23T13:09:10.134Z,26.04
2019-05-23T13:11:37.497Z,26.15
2019-05-23T13:14:05.745Z,25.71
2019-05-23T13:16:35.473Z,25.29
2019-05-23T13:19:02.355Z,25.53
2019-05-23T13:21:30.703Z,25.90
2019-05-23T13:23:57.869Z,26.47
2019-05-23T13:26:24.995Z,26.76
2019-05-23T13:28:51.700Z,26.94
2019-05-23T13:31:18.521Z,26.77
2019-05-23T13:33:45.457Z,26.96
2019-05-23T13:36:12.463Z,26.91
2019-05-23T13:38:39.949Z,26.82
2019-05-23T13:41:07.092Z,26.99
2019-05-23T13:43:33.819Z,26.82
2019-05-23T13:46:00.568Z,26.53
2019-05-23T13:48:30.294Z,26.77
2019-05-23T13:50:57.240Z,26.77
2019-05-23T13:53:24.001Z,26.69
2019-05-23T13:55:54.317Z,26.51
2019-05-23T13:58:21.371Z,26.17
2019-05-23T14:00:49.200Z,25.42
2019-05-23T14:03:16.256Z,25.03
2019-05-23T14:05:46.349Z,25.02
2019-05-23T14:08:13.637Z,25.10
2019-05-23T14:10:40.610Z,25.02
2019-05-23T14:13:07.416Z,24.79
2019-05-23T14:15:39.567Z,24.30
2019-05-23T14:18:06.820Z,24.40
2019-05-23T14:20:33.844Z,24.66
2019-05-23T14:23:06.439Z,24.37
2019-05-23T14:25:33.467Z,24.76
2019-05-23T14:28:07.319Z,25.30
2019-05-23T14:30:57.281Z,25.84
2019-05-23T14:33:44.583Z,25.87
2019-05-23T14:36:32.296Z,26.10
2019-05-23T14:39:00.053Z,26.75
2019-05-23T14:41:44.061Z,26.22
2019-05-23T14:43:57.877Z,27.02
2019-05-23T14:46:28.117Z,27.87
2019-05-23T14:48:59.263Z,28.37
2019-05-23T14:51:54.599Z,28.68
2019-05-23T14:54:29.870Z,29.11
2019-05-23T14:56:56.665Z,29.35
2019-05-23T14:59:26.009Z,29.36
2019-05-23T15:01:53.685Z,29.29
2019-05-23T15:04:20.441Z,29.41
2019-05-23T15:06:47.599Z,29.50
2019-05-23T15:09:14.364Z,29.50
2019-05-23T15:11:41.303Z,29.58
2019-05-23T15:14:09.838Z,29.52
2019-05-23T15:16:36.885Z,28.62
2019-05-23T15:19:07.014Z,27.94
2019-05-23T15:21:33.721Z,27.39
2019-05-23T15:24:01.402Z,27.00
2019-05-23T15:26:30.933Z,26.75
2019-05-23T15:28:58.573Z,26.51
2019-05-23T15:31:25.442Z,26.63
2019-05-23T15:33:52.901Z,26.72
2019-05-23T15:36:19.696Z,26.37
2019-05-23T15:38:46.516Z,25.97
2019-05-23T15:41:13.253Z,25.79
2019-05-23T15:43:40.041Z,25.36
2019-05-23T15:46:07.133Z,26.25
2019-05-23T15:48:33.868Z,26.41
2019-05-23T15:51:04.879Z,27.42
2019-05-23T15:53:56.231Z,28.24
2019-05-23T15:56:39.986Z,28.46
2019-05-23T15:59:31.806Z,27.64
2019-05-23T16:02:06.704Z,27.05
2019-05-23T16:04:33.435Z,27.27
2019-05-23T16:07:00.379Z,26.55
2019-05-23T16:09:31.017Z,26.77
2019-05-23T16:11:58.336Z,26.93
2019-05-23T16:14:26.082Z,27.07
2019-05-23T16:16:56.689Z,26.20
2019-05-23T16:19:24.119Z,25.86
2019-05-23T16:21:50.971Z,26.38
2019-05-23T16:24:18.312Z,26.92
2019-05-23T16:26:45.263Z,27.14
2019-05-23T16:29:13.332Z,26.91
2019-05-23T16:31:40.307Z,26.90
2019-05-23T16:34:07.337Z,27.11
2019-05-23T16:36:34.923Z,27.10
2019-05-23T16:39:01.856Z,27.47
2019-05-23T16:41:28.877Z,27.24
2019-05-23T16:43:56.242Z,26.79
2019-05-23T16:46:23.221Z,26.33
2019-05-23T16:48:52.801Z,26.60
2019-05-23T16:51:20.934Z,27.04
2019-05-23T16:53:48.286Z,26.51
2019-05-23T16:56:46.870Z,26.33
2019-05-23T16:59:22.433Z,26.00
2019-05-23T17:02:06.428Z,26.21
2019-05-23T17:05:09.946Z,26.05
2019-05-23T17:08:03.966Z,26.11
2019-05-23T17:10:55.874Z,25.94
2019-05-23T17:13:47.791Z,24.73
2019-05-23T17:16:27.684Z,25.47
2019-05-23T17:19:20.505Z,25.01
2019-05-23T17:22:08.194Z,24.78
2019-05-23T17:24:57.458Z,24.80
2019-05-23T17:27:43.126Z,24.87
2019-05-23T17:30:32.403Z,24.97
2019-05-23T17:32:59.788Z,25.04
2019-05-23T17:35:26.528Z,24.81
2019-05-23T17:37:53.426Z,24.60
2019-05-23T17:40:24.904Z,24.59
2019-05-23T17:42:49.401Z,24.61
2019-05-23T17:45:17.729Z,24.69
2019-05-23T17:47:44.657Z,24.50
2019-05-23T17:50:11.443Z,24.38
2019-05-23T17:52:38.195Z,24.33
2019-05-23T17:55:05.302Z,24.18
2019-05-23T17:57:32.274Z,24.19
2019-05-23T17:59:58.972Z,24.00
2019-05-23T18:02:26.429Z,23.99
2019-05-23T18:04:53.797Z,24.05
2019-05-23T18:07:20.848Z,24.06
2019-05-23T18:09:48.286Z,23.86
2019-05-23T18:12:15.145Z,23.84
2019-05-23T18:14:42.233Z,23.72
2019-05-23T18:17:09.055Z,23.74
2019-05-23T18:19:38.647Z,23.72
2019-05-23T18:22:07.641Z,23.69
2019-05-23T18:24:35.573Z,23.62
2019-05-23T18:27:03.371Z,23.62
2019-05-23T18:29:30.208Z,23.59
2019-05-23T18:31:58.906Z,23.46
2019-05-23T18:34:26.094Z,23.35
2019-05-23T18:36:53.070Z,23.27
2019-05-23T18:39:23.842Z,23.24
2019-05-23T18:41:50.922Z,23.20
2019-05-23T18:44:18.324Z,23.06
2019-05-23T18:46:48.947Z,22.96
2019-05-23T18:49:16.539Z,22.86
2019-05-23T18:51:44.041Z,22.82
2019-05-23T18:54:11.557Z,22.77
2019-05-23T18:56:38.350Z,22.69
2019-05-23T18:59:06.634Z,22.66
2019-05-23T19:01:34.445Z,22.67
2019-05-23T19:04:01.265Z,22.62
2019-05-23T19:06:28.771Z,22.54
2019-05-23T19:08:55.625Z,22.53
2019-05-23T19:11:24.578Z,22.49
2019-05-23T19:13:51.676Z,22.39
2019-05-23T19:16:18.685Z,22.23
2019-05-23T19:18:46.592Z,22.13
2019-05-23T19:21:14.137Z,22.06
2019-05-23T19:23:41.290Z,21.95
2019-05-23T19:26:08.459Z,21.82
2019-05-23T19:28:35.209Z,21.77
2019-05-23T19:31:02.311Z,21.69
2019-05-23T19:33:29.493Z,21.64
2019-05-23T19:35:56.782Z,21.48
2019-05-23T19:38:23.591Z,21.43
2019-05-23T19:40:50.859Z,21.41
2019-05-23T19:43:18.921Z,21.35
2019-05-23T19:45:46.444Z,21.23
2019-05-23T19:48:13.776Z,21.08
2019-05-23T19:50:41.208Z,20.82
2019-05-23T19:53:08.322Z,20.70
2019-05-23T19:55:35.851Z,20.54
2019-05-23T19:58:03.173Z,20.46
2019-05-23T20:00:31.037Z,20.39
2019-05-23T20:02:58.305Z,20.41
2019-05-23T20:05:28.591Z,20.37
2019-05-23T20:07:55.737Z,20.17
2019-05-23T20:10:23.298Z,20.08
2019-05-23T20:12:50.293Z,20.11
2019-05-23T20:15:17.166Z,20.01
2019-05-23T20:17:51.765Z,19.92
2019-05-23T20:20:19.954Z,19.89
2019-05-23T20:22:53.279Z,19.81
2019-05-23T20:25:20.213Z,19.72
2019-05-23T20:27:47.045Z,19.66
2019-05-23T20:30:38.308Z,19.62
2019-05-23T20:33:07.035Z,19.56
2019-05-23T20:35:33.784Z,19.36
2019-05-23T20:38:02.813Z,19.14
2019-05-23T20:40:33.230Z,19.12
2019-05-23T20:43:02.546Z,19.02
2019-05-23T20:45:29.499Z,18.93
2019-05-23T20:47:56.248Z,18.72
2019-05-23T20:50:23.419Z,18.70
2019-05-23T20:52:50.542Z,18.59
2019-05-23T20:55:17.497Z,18.55
2019-05-23T20:57:44.465Z,18.34
2019-05-23T21:00:18.916Z,18.33
2019-05-23T21:02:45.650Z,18.22
2019-05-23T21:05:12.407Z,18.07
2019-05-23T21:07:39.396Z,18.09
2019-05-23T21:10:06.172Z,18.11
2019-05-23T21:12:33.022Z,18.03
2019-05-23T21:15:00.169Z,17.97
2019-05-23T21:17:27.744Z,18.01
2019-05-23T21:19:55.760Z,18.03
2019-05-23T21:22:23.688Z,17.89
2019-05-23T21:24:50.714Z,17.73
2019-05-23T21:27:39.269Z,17.79
2019-05-23T21:30:07.439Z,17.52
2019-05-23T21:32:35.087Z,17.32
2019-05-23T21:35:04.966Z,17.28
2019-05-23T21:37:32.801Z,17.29
2019-05-23T21:39:59.726Z,17.22
2019-05-23T21:42:44.987Z,17.07
2019-05-23T21:44:59.154Z,16.89
2019-05-23T21:47:25.870Z,16.86
2019-05-23T21:49:52.704Z,16.70
2019-05-23T21:52:19.565Z,16.67
2019-05-23T21:54:46.424Z,16.74
2019-05-23T21:57:16.246Z,16.93
2019-05-23T21:59:42.806Z,17.09
2019-05-23T22:02:18.339Z,16.92
2019-05-23T22:04:56.379Z,16.88
2019-05-23T22:07:23.343Z,16.88
2019-05-23T22:10:12.744Z,16.77
2019-05-23T22:13:14.035Z,16.62
2019-05-23T22:15:56.415Z,16.52
2019-05-23T22:18:59.207Z,16.38
2019-05-23T22:21:36.811Z,16.42
2019-05-23T22:24:06.540Z,16.31
2019-05-23T22:26:33.742Z,16.29
2019-05-23T22:29:00.478Z,16.24
2019-05-23T22:31:27.215Z,16.18
2019-05-23T22:34:00.247Z,16.24
2019-05-23T22:36:27.026Z,16.28
2019-05-23T22:38:53.883Z,16.22
2019-05-23T22:41:20.885Z,16.11
2019-05-23T22:43:47.581Z,15.92
2019-05-23T22:46:15.143Z,15.91
2019-05-23T22:48:41.895Z,15.83
2019-05-23T22:51:08.610Z,15.85
2019-05-23T22:53:38.395Z,16.01
2019-05-23T22:56:05.234Z,16.16
2019-05-23T22:58:32.228Z,16.02
2019-05-23T23:00:59.070Z,15.89
2019-05-23T23:03:25.783Z,15.86
2019-05-23T23:05:52.645Z,15.95
2019-05-23T23:08:19.975Z,15.79
2019-05-23T23:10:47.674Z,15.71
2019-05-23T23:13:14.796Z,15.63
2019-05-23T23:15:44.997Z,15.60
2019-05-23T23:18:11.781Z,15.59
2019-05-23T23:20:38.525Z,15.56
2019-05-23T23:23:05.447Z,15.51
2019-05-23T23:25:32.293Z,15.58
2019-05-23T23:27:59.012Z,15.58
2019-05-23T23:30:29.071Z,15.47
2019-05-23T23:32:55.779Z,15.43
2019-05-23T23:35:22.620Z,15.49
2019-05-23T23:37:49.322Z,15.46
2019-05-23T23:40:16.523Z,15.63
2019-05-23T23:42:43.585Z,15.49
2019-05-23T23:45:29.077Z,15.27
2019-05-23T23:48:14.059Z,15.29
2019-05-23T23:50:58.955Z,15.31
2019-05-23T23:53:44.134Z,15.27
2019-05-23T23:56:29.656Z,15.24
2019-05-23T23:58:56.047Z,15.31
